Arlington Heights, MA (02475)

9:17 PM EDT on April 30, 2017 (GMT -0400)
Ottoson | | Change Station

Elev 0 ft 42.42 °N, 71.17 °W | Updated 23 seconds ago

Overcast
Overcast
48.2 °F
Feels Like 48 °F
N
0.0
Wind Variable Wind from South
Gusts 0.0 mph

Today
High -- | Low -- °F
--% Chance of Precip.
Yesterday
High -- | Low -- °F
Precip. -- in
Pressure 30.28 in
Visibility 10.0 miles
Clouds Overcast 4700 ft
Windchill 48 °F
Dew Point 39 °F
Humidity 71%
Rainfall 0.11 in
Snow Depth Not available.
5:40 AM 7:43 PM
Waxing Crescent, 28% visible
METAR KBED 010056Z 12008KT 10SM OVC047 08/02 A3024 RMK AO2 SLP253 T00830017
Pressure 30.28 in
Visibility 10.0 miles
Clouds Overcast 4700 ft
Windchill 48 °F
Dew Point 39 °F
Humidity 71%
Rainfall 0.11 in
Snow Depth Not available.
5:40 AM 7:43 PM
Waxing Crescent, 28% visible
METAR KBED 010056Z 12008KT 10SM OVC047 08/02 A3024 RMK AO2 SLP253 T00830017

Get Severe Weather Alerts

Thanks for signing up!

Be on the lookout for a verification email in your inbox.

You'll start receiving the daily forecast at 8 AM.

×

10-Day Weather Forecast

Almanac

Astronomy

Apr. 30, 2017 Rise Set
Actual Time
Civil Twilight
Nautical Twilight
Astronomical Twilight
Moon
Length of Visible Light
Length of Day
Tomorrow will be .
, % of the Moon is Illuminated

Today's Extremes

State Highs State Lows

Community

WunderPhotos

WunderBlog® & News

Nearby

Air Quality

  Air Quality AQ Index Pollutant
Not available.

Snow Depth

Station Depth Elevation

Earthquake Activity

City Distance Mag. Time & Date
Minimum magnitude displayed is 2.5.

Coastal Water Temperatures

Place Temperature

Stations

Nearby Weather Stations

Station Location Temp. Windchill Dew Point Humidity Wind Precip. Elev Updated Type
                   

Watches & Warnings

There are currently no watches in effect.